sensor_id;sensor_type;location;lat;lon;timestamp;pressure;altitude;pressure_sealevel;temperature;humidity
34241;BME280;20503;50.200;19.508;2023-04-29T00:01:38;101349.23;;;8.34;65.95
34241;BME280;20503;50.200;19.508;2023-04-29T00:06:48;101351.64;;;7.90;70.56
34241;BME280;20503;50.200;19.508;2023-04-29T00:11:53;101350.48;;;7.85;70.25
34241;BME280;20503;50.200;19.508;2023-04-29T00:17:02;101338.16;;;7.97;70.13
34241;BME280;20503;50.200;19.508;2023-04-29T00:22:10;101345.16;;;7.91;70.59
34241;BME280;20503;50.200;19.508;2023-04-29T00:27:18;101349.09;;;7.89;72.18
34241;BME280;20503;50.200;19.508;2023-04-29T00:32:26;101339.50;;;8.31;70.74
34241;BME280;20503;50.200;19.508;2023-04-29T00:37:36;101335.05;;;8.61;70.09
34241;BME280;20503;50.200;19.508;2023-04-29T00:42:45;101333.61;;;8.50;72.29
34241;BME280;20503;50.200;19.508;2023-04-29T00:47:49;101329.97;;;8.35;71.68
34241;BME280;20503;50.200;19.508;2023-04-29T00:52:57;101328.31;;;8.49;70.79
34241;BME280;20503;50.200;19.508;2023-04-29T00:58:05;101329.76;;;8.82;68.91
34241;BME280;20503;50.200;19.508;2023-04-29T01:03:14;101328.73;;;8.83;69.86
34241;BME280;20503;50.200;19.508;2023-04-29T01:08:33;101324.32;;;8.96;68.82
34241;BME280;20503;50.200;19.508;2023-04-29T01:13:41;101318.27;;;9.37;65.85
34241;BME280;20503;50.200;19.508;2023-04-29T01:18:49;101314.80;;;9.72;63.96
34241;BME280;20503;50.200;19.508;2023-04-29T01:23:53;101318.63;;;9.92;63.67
34241;BME280;20503;50.200;19.508;2023-04-29T01:34:18;101318.84;;;10.05;65.19
34241;BME280;20503;50.200;19.508;2023-04-29T01:39:32;101309.13;;;9.88;66.08
34241;BME280;20503;50.200;19.508;2023-04-29T01:44:38;101310.22;;;9.94;67.20
34241;BME280;20503;50.200;19.508;2023-04-29T01:49:42;101299.80;;;9.83;68.49
34241;BME280;20503;50.200;19.508;2023-04-29T01:54:47;101298.60;;;9.56;70.01
34241;BME280;20503;50.200;19.508;2023-04-29T01:59:48;101302.27;;;9.49;71.33
34241;BME280;20503;50.200;19.508;2023-04-29T02:04:50;101300.07;;;9.16;73.64
34241;BME280;20503;50.200;19.508;2023-04-29T02:09:54;101304.23;;;9.12;74.88
34241;BME280;20503;50.200;19.508;2023-04-29T02:15:03;101304.05;;;9.42;71.45
34241;BME280;20503;50.200;19.508;2023-04-29T02:20:11;101308.47;;;9.72;69.79
34241;BME280;20503;50.200;19.508;2023-04-29T02:25:18;101298.27;;;9.80;68.37
34241;BME280;20503;50.200;19.508;2023-04-29T02:30:27;101299.95;;;10.10;67.06
34241;BME280;20503;50.200;19.508;2023-04-29T02:35:36;101292.73;;;10.24;66.81
34241;BME280;20503;50.200;19.508;2023-04-29T02:40:43;101293.34;;;10.40;66.23
34241;BME280;20503;50.200;19.508;2023-04-29T02:45:50;101298.21;;;10.45;65.87
34241;BME280;20503;50.200;19.508;2023-04-29T02:50:56;101287.98;;;10.53;65.55
34241;BME280;20503;50.200;19.508;2023-04-29T02:56:06;101284.41;;;10.53;65.70
34241;BME280;20503;50.200;19.508;2023-04-29T03:01:11;101292.41;;;10.54;65.05
34241;BME280;20503;50.200;19.508;2023-04-29T03:06:19;101279.73;;;10.47;66.06
34241;BME280;20503;50.200;19.508;2023-04-29T03:11:27;101265.05;;;10.33;65.86
34241;BME280;20503;50.200;19.508;2023-04-29T03:16:34;101271.05;;;10.22;66.83
34241;BME280;20503;50.200;19.508;2023-04-29T03:21:44;101266.34;;;10.16;66.29
34241;BME280;20503;50.200;19.508;2023-04-29T03:26:52;101274.77;;;10.15;65.84
34241;BME280;20503;50.200;19.508;2023-04-29T03:31:58;101272.09;;;10.21;65.85
34241;BME280;20503;50.200;19.508;2023-04-29T03:37:06;101270.51;;;10.12;65.87
34241;BME280;20503;50.200;19.508;2023-04-29T03:42:14;101267.52;;;10.07;66.38
34241;BME280;20503;50.200;19.508;2023-04-29T03:47:23;101267.70;;;10.06;67.49
34241;BME280;20503;50.200;19.508;2023-04-29T03:52:29;101277.34;;;10.02;68.23
34241;BME280;20503;50.200;19.508;2023-04-29T03:57:37;101276.47;;;10.01;69.37
34241;BME280;20503;50.200;19.508;2023-04-29T04:02:44;101278.92;;;9.96;70.17
34241;BME280;20503;50.200;19.508;2023-04-29T04:07:52;101277.88;;;9.97;71.11
34241;BME280;20503;50.200;19.508;2023-04-29T04:13:00;101283.47;;;9.89;72.22
34241;BME280;20503;50.200;19.508;2023-04-29T04:18:08;101278.75;;;9.83;73.77
34241;BME280;20503;50.200;19.508;2023-04-29T04:23:15;101277.63;;;9.78;75.49
34241;BME280;20503;50.200;19.508;2023-04-29T04:28:23;101268.02;;;9.82;76.29
34241;BME280;20503;50.200;19.508;2023-04-29T04:33:32;101261.70;;;9.81;77.87
34241;BME280;20503;50.200;19.508;2023-04-29T04:38:38;101271.33;;;9.77;78.54
34241;BME280;20503;50.200;19.508;2023-04-29T04:43:47;101277.32;;;9.87;79.56
34241;BME280;20503;50.200;19.508;2023-04-29T04:48:54;101267.81;;;9.83;80.27
34241;BME280;20503;50.200;19.508;2023-04-29T04:54:03;101264.51;;;9.88;81.41
34241;BME280;20503;50.200;19.508;2023-04-29T04:59:09;101256.78;;;9.91;82.21
34241;BME280;20503;50.200;19.508;2023-04-29T05:04:17;101255.00;;;9.84;84.84
34241;BME280;20503;50.200;19.508;2023-04-29T05:09:24;101253.58;;;9.88;85.01
34241;BME280;20503;50.200;19.508;2023-04-29T05:14:32;101254.88;;;9.92;86.55
34241;BME280;20503;50.200;19.508;2023-04-29T05:19:40;101250.53;;;9.97;86.79
34241;BME280;20503;50.200;19.508;2023-04-29T05:24:48;101264.49;;;10.02;87.12
34241;BME280;20503;50.200;19.508;2023-04-29T05:29:56;101266.29;;;9.95;88.10
34241;BME280;20503;50.200;19.508;2023-04-29T05:35:03;101260.17;;;9.93;91.15
34241;BME280;20503;50.200;19.508;2023-04-29T05:40:11;101264.02;;;9.99;91.35
34241;BME280;20503;50.200;19.508;2023-04-29T05:45:18;101267.52;;;10.07;93.53
34241;BME280;20503;50.200;19.508;2023-04-29T05:50:25;101269.13;;;9.87;97.16
34241;BME280;20503;50.200;19.508;2023-04-29T05:55:33;101267.16;;;9.81;100.00
34241;BME280;20503;50.200;19.508;2023-04-29T06:00:41;101271.67;;;9.89;100.00
34241;BME280;20503;50.200;19.508;2023-04-29T06:05:48;101273.02;;;9.78;100.00
34241;BME280;20503;50.200;19.508;2023-04-29T06:10:55;101265.86;;;9.77;100.00
34241;BME280;20503;50.200;19.508;2023-04-29T06:16:03;101268.03;;;9.67;100.00
34241;BME280;20503;50.200;19.508;2023-04-29T06:21:11;101269.20;;;9.58;100.00
34241;BME280;20503;50.200;19.508;2023-04-29T06:26:19;101264.47;;;9.67;100.00
34241;BME280;20503;50.200;19.508;2023-04-29T06:31:27;101266.69;;;9.78;100.00
34241;BME280;20503;50.200;19.508;2023-04-29T06:36:34;101263.16;;;9.98;100.00
34241;BME280;20503;50.200;19.508;2023-04-29T06:41:41;101262.63;;;10.03;100.00
34241;BME280;20503;50.200;19.508;2023-04-29T06:46:49;101268.35;;;10.08;100.00
34241;BME280;20503;50.200;19.508;2023-04-29T06:51:57;101271.05;;;10.22;100.00
34241;BME280;20503;50.200;19.508;2023-04-29T06:57:04;101269.94;;;10.38;100.00
34241;BME280;20503;50.200;19.508;2023-04-29T07:02:12;101268.71;;;10.40;100.00
34241;BME280;20503;50.200;19.508;2023-04-29T07:07:19;101271.63;;;10.18;100.00
34241;BME280;20503;50.200;19.508;2023-04-29T07:12:27;101262.56;;;10.17;100.00
34241;BME280;20503;50.200;19.508;2023-04-29T07:17:35;101269.62;;;10.26;100.00
34241;BME280;20503;50.200;19.508;2023-04-29T07:22:42;101265.33;;;10.38;100.00
34241;BME280;20503;50.200;19.508;2023-04-29T07:27:50;101278.29;;;10.51;100.00
34241;BME280;20503;50.200;19.508;2023-04-29T07:32:57;101278.94;;;10.53;100.00
34241;BME280;20503;50.200;19.508;2023-04-29T07:38:05;101276.91;;;10.61;100.00
34241;BME280;20503;50.200;19.508;2023-04-29T07:43:12;101292.48;;;10.61;100.00
34241;BME280;20503;50.200;19.508;2023-04-29T07:48:19;101281.99;;;10.64;100.00
34241;BME280;20503;50.200;19.508;2023-04-29T07:53:27;101277.80;;;10.68;100.00
34241;BME280;20503;50.200;19.508;2023-04-29T07:58:34;101283.22;;;10.62;100.00
34241;BME280;20503;50.200;19.508;2023-04-29T08:03:42;101290.84;;;10.66;100.00
34241;BME280;20503;50.200;19.508;2023-04-29T08:08:50;101297.43;;;10.72;100.00
34241;BME280;20503;50.200;19.508;2023-04-29T08:13:58;101303.49;;;10.88;100.00
34241;BME280;20503;50.200;19.508;2023-04-29T08:19:06;101306.60;;;10.85;100.00
34241;BME280;20503;50.200;19.508;2023-04-29T08:24:14;101298.32;;;11.00;100.00
34241;BME280;20503;50.200;19.508;2023-04-29T08:29:21;101295.23;;;11.09;100.00
34241;BME280;20503;50.200;19.508;2023-04-29T08:34:32;101302.34;;;11.31;100.00
34241;BME280;20503;50.200;19.508;2023-04-29T08:39:37;101305.95;;;11.04;100.00
34241;BME280;20503;50.200;19.508;2023-04-29T08:44:44;101312.13;;;11.13;100.00
34241;BME280;20503;50.200;19.508;2023-04-29T08:49:52;101296.63;;;11.26;100.00
34241;BME280;20503;50.200;19.508;2023-04-29T08:54:59;101302.84;;;11.41;100.00
34241;BME280;20503;50.200;19.508;2023-04-29T09:00:08;101296.31;;;11.42;100.00
34241;BME280;20503;50.200;19.508;2023-04-29T09:05:14;101293.51;;;11.63;100.00
34241;BME280;20503;50.200;19.508;2023-04-29T09:10:22;101296.13;;;11.50;100.00
34241;BME280;20503;50.200;19.508;2023-04-29T09:15:37;101290.62;;;11.77;100.00
34241;BME280;20503;50.200;19.508;2023-04-29T09:20:41;101288.84;;;11.97;100.00
34241;BME280;20503;50.200;19.508;2023-04-29T09:25:56;101286.85;;;11.78;100.00
34241;BME280;20503;50.200;19.508;2023-04-29T09:30:57;101275.69;;;11.86;100.00
34241;BME280;20503;50.200;19.508;2023-04-29T09:36:00;101282.34;;;12.18;100.00
34241;BME280;20503;50.200;19.508;2023-04-29T09:41:08;101273.29;;;12.24;100.00
34241;BME280;20503;50.200;19.508;2023-04-29T09:46:15;101271.07;;;13.18;91.77
34241;BME280;20503;50.200;19.508;2023-04-29T09:51:24;101279.61;;;13.80;83.29
34241;BME280;20503;50.200;19.508;2023-04-29T10:01:51;101277.11;;;14.60;79.94
34241;BME280;20503;50.200;19.508;2023-04-29T10:06:54;101267.38;;;15.06;77.05
34241;BME280;20503;50.200;19.508;2023-04-29T10:11:55;101259.21;;;14.69;76.06
34241;BME280;20503;50.200;19.508;2023-04-29T10:17:09;101271.11;;;15.18;72.83
34241;BME280;20503;50.200;19.508;2023-04-29T10:22:18;101261.51;;;15.45;72.52
34241;BME280;20503;50.200;19.508;2023-04-29T10:27:23;101257.62;;;15.28;71.38
34241;BME280;20503;50.200;19.508;2023-04-29T10:32:27;101268.10;;;15.19;72.76
34241;BME280;20503;50.200;19.508;2023-04-29T10:37:33;101265.46;;;15.73;70.19
34241;BME280;20503;50.200;19.508;2023-04-29T10:42:45;101258.46;;;15.89;67.13
34241;BME280;20503;50.200;19.508;2023-04-29T10:53:09;101267.42;;;15.48;69.93
34241;BME280;20503;50.200;19.508;2023-04-29T11:08:39;101241.44;;;15.74;70.67
34241;BME280;20503;50.200;19.508;2023-04-29T11:13:45;101245.81;;;15.45;71.85
34241;BME280;20503;50.200;19.508;2023-04-29T11:24:02;101245.66;;;15.94;70.56
34241;BME280;20503;50.200;19.508;2023-04-29T11:29:07;101243.38;;;16.21;70.34
34241;BME280;20503;50.200;19.508;2023-04-29T11:34:12;101237.72;;;15.98;70.82
34241;BME280;20503;50.200;19.508;2023-04-29T11:39:15;101250.41;;;15.51;70.69
34241;BME280;20503;50.200;19.508;2023-04-29T11:44:20;101250.94;;;15.42;71.92
34241;BME280;20503;50.200;19.508;2023-04-29T11:49:31;101252.69;;;15.36;73.15
34241;BME280;20503;50.200;19.508;2023-04-29T11:54:33;101245.33;;;15.30;72.20
34241;BME280;20503;50.200;19.508;2023-04-29T11:59:41;101251.96;;;15.23;73.30
34241;BME280;20503;50.200;19.508;2023-04-29T12:04:47;101248.44;;;14.92;74.11
34241;BME280;20503;50.200;19.508;2023-04-29T12:09:55;101248.48;;;14.85;74.59
34241;BME280;20503;50.200;19.508;2023-04-29T12:15:03;101248.30;;;14.80;74.15
34241;BME280;20503;50.200;19.508;2023-04-29T12:20:12;101248.80;;;14.71;74.50
34241;BME280;20503;50.200;19.508;2023-04-29T12:25:19;101249.48;;;14.91;74.80
34241;BME280;20503;50.200;19.508;2023-04-29T12:30:26;101251.09;;;15.22;73.16
34241;BME280;20503;50.200;19.508;2023-04-29T12:35:35;101241.75;;;15.23;73.36
34241;BME280;20503;50.200;19.508;2023-04-29T12:40:43;101238.95;;;15.05;74.02
34241;BME280;20503;50.200;19.508;2023-04-29T12:45:49;101239.90;;;15.42;74.47
34241;BME280;20503;50.200;19.508;2023-04-29T12:50:57;101234.84;;;15.39;73.54
34241;BME280;20503;50.200;19.508;2023-04-29T12:56:05;101227.64;;;15.56;73.10
34241;BME280;20503;50.200;19.508;2023-04-29T13:01:12;101230.45;;;15.31;73.44
34241;BME280;20503;50.200;19.508;2023-04-29T13:06:19;101222.27;;;15.61;72.82
34241;BME280;20503;50.200;19.508;2023-04-29T13:11:27;101226.97;;;15.60;72.69
34241;BME280;20503;50.200;19.508;2023-04-29T13:16:35;101227.64;;;15.74;72.66
34241;BME280;20503;50.200;19.508;2023-04-29T13:21:43;101233.62;;;15.35;76.04
34241;BME280;20503;50.200;19.508;2023-04-29T13:26:51;101232.85;;;15.64;76.26
34241;BME280;20503;50.200;19.508;2023-04-29T13:31:59;101224.63;;;15.93;76.27
34241;BME280;20503;50.200;19.508;2023-04-29T13:37:07;101218.13;;;16.17;74.16
34241;BME280;20503;50.200;19.508;2023-04-29T13:42:15;101221.32;;;16.03;74.32
34241;BME280;20503;50.200;19.508;2023-04-29T13:47:22;101225.16;;;16.02;74.04
34241;BME280;20503;50.200;19.508;2023-04-29T13:52:30;101222.05;;;16.69;71.69
34241;BME280;20503;50.200;19.508;2023-04-29T13:57:37;101211.98;;;17.08;69.87
34241;BME280;20503;50.200;19.508;2023-04-29T14:02:45;101224.62;;;16.82;66.96
34241;BME280;20503;50.200;19.508;2023-04-29T14:07:53;101207.08;;;16.47;69.92
34241;BME280;20503;50.200;19.508;2023-04-29T14:13:01;101218.48;;;16.39;70.12
34241;BME280;20503;50.200;19.508;2023-04-29T14:18:09;101217.74;;;16.14;68.33
34241;BME280;20503;50.200;19.508;2023-04-29T14:23:17;101209.50;;;15.96;71.46
34241;BME280;20503;50.200;19.508;2023-04-29T14:28:25;101213.77;;;16.10;70.88
34241;BME280;20503;50.200;19.508;2023-04-29T14:33:32;101206.77;;;15.78;71.72
34241;BME280;20503;50.200;19.508;2023-04-29T14:38:40;101207.85;;;15.77;72.92
34241;BME280;20503;50.200;19.508;2023-04-29T14:43:48;101208.80;;;15.53;73.44
34241;BME280;20503;50.200;19.508;2023-04-29T14:48:55;101217.90;;;15.53;74.99
34241;BME280;20503;50.200;19.508;2023-04-29T14:54:03;101205.71;;;15.43;75.08
34241;BME280;20503;50.200;19.508;2023-04-29T14:59:11;101205.43;;;15.51;73.49
34241;BME280;20503;50.200;19.508;2023-04-29T15:04:19;101203.88;;;15.55;72.98
34241;BME280;20503;50.200;19.508;2023-04-29T15:09:26;101208.65;;;15.66;73.17
34241;BME280;20503;50.200;19.508;2023-04-29T15:14:35;101207.32;;;15.68;71.56
34241;BME280;20503;50.200;19.508;2023-04-29T15:19:42;101200.52;;;15.35;73.31
34241;BME280;20503;50.200;19.508;2023-04-29T15:24:50;101207.12;;;15.09;74.65
34241;BME280;20503;50.200;19.508;2023-04-29T15:29:58;101201.14;;;15.12;75.73
34241;BME280;20503;50.200;19.508;2023-04-29T15:35:06;101214.69;;;15.14;75.24
34241;BME280;20503;50.200;19.508;2023-04-29T15:40:14;101211.65;;;15.22;74.70
34241;BME280;20503;50.200;19.508;2023-04-29T15:45:21;101215.77;;;15.13;75.62
34241;BME280;20503;50.200;19.508;2023-04-29T15:50:29;101214.33;;;15.10;76.89
34241;BME280;20503;50.200;19.508;2023-04-29T15:55:37;101211.47;;;14.99;82.23
34241;BME280;20503;50.200;19.508;2023-04-29T16:00:45;101214.61;;;14.78;89.38
34241;BME280;20503;50.200;19.508;2023-04-29T16:05:52;101219.49;;;14.14;100.00
34241;BME280;20503;50.200;19.508;2023-04-29T16:11:00;101238.32;;;13.80;100.00
34241;BME280;20503;50.200;19.508;2023-04-29T16:16:08;101250.34;;;13.15;100.00
34241;BME280;20503;50.200;19.508;2023-04-29T16:21:16;101257.29;;;12.53;100.00
34241;BME280;20503;50.200;19.508;2023-04-29T16:26:24;101253.46;;;12.41;100.00
34241;BME280;20503;50.200;19.508;2023-04-29T16:31:32;101246.64;;;12.05;100.00
34241;BME280;20503;50.200;19.508;2023-04-29T16:36:40;101240.24;;;11.91;100.00
34241;BME280;20503;50.200;19.508;2023-04-29T16:41:48;101228.84;;;11.81;100.00
34241;BME280;20503;50.200;19.508;2023-04-29T16:46:57;101221.61;;;11.67;100.00
34241;BME280;20503;50.200;19.508;2023-04-29T16:55:56;101210.63;;;11.67;100.00
34241;BME280;20503;50.200;19.508;2023-04-29T17:01:04;101219.08;;;11.72;100.00
34241;BME280;20503;50.200;19.508;2023-04-29T17:06:12;101224.98;;;11.69;100.00
34241;BME280;20503;50.200;19.508;2023-04-29T17:11:19;101229.16;;;11.59;100.00
34241;BME280;20503;50.200;19.508;2023-04-29T17:16:27;101226.83;;;11.56;100.00
34241;BME280;20503;50.200;19.508;2023-04-29T17:21:36;101240.13;;;11.59;100.00
34241;BME280;20503;50.200;19.508;2023-04-29T17:26:43;101250.07;;;11.66;100.00
34241;BME280;20503;50.200;19.508;2023-04-29T17:31:51;101264.27;;;11.83;100.00
34241;BME280;20503;50.200;19.508;2023-04-29T17:37:02;101272.05;;;11.73;100.00
34241;BME280;20503;50.200;19.508;2023-04-29T17:42:06;101280.12;;;11.87;100.00
34241;BME280;20503;50.200;19.508;2023-04-29T17:47:14;101279.70;;;11.90;100.00
34241;BME280;20503;50.200;19.508;2023-04-29T17:52:21;101285.41;;;11.89;100.00
34241;BME280;20503;50.200;19.508;2023-04-29T17:57:29;101280.16;;;11.94;100.00
34241;BME280;20503;50.200;19.508;2023-04-29T18:02:37;101287.14;;;11.96;100.00
34241;BME280;20503;50.200;19.508;2023-04-29T18:07:45;101286.47;;;11.88;100.00
34241;BME280;20503;50.200;19.508;2023-04-29T18:12:53;101293.77;;;11.74;100.00
34241;BME280;20503;50.200;19.508;2023-04-29T18:18:00;101293.96;;;11.66;100.00
34241;BME280;20503;50.200;19.508;2023-04-29T18:23:08;101299.14;;;11.55;100.00
34241;BME280;20503;50.200;19.508;2023-04-29T18:28:16;101299.88;;;11.42;100.00
34241;BME280;20503;50.200;19.508;2023-04-29T18:33:24;101297.59;;;11.46;100.00
34241;BME280;20503;50.200;19.508;2023-04-29T18:38:31;101310.70;;;11.50;100.00
34241;BME280;20503;50.200;19.508;2023-04-29T18:43:40;101313.52;;;11.57;100.00
34241;BME280;20503;50.200;19.508;2023-04-29T18:48:47;101315.50;;;11.42;100.00
34241;BME280;20503;50.200;19.508;2023-04-29T18:53:55;101322.30;;;11.52;100.00
34241;BME280;20503;50.200;19.508;2023-04-29T18:59:03;101326.94;;;11.52;100.00
34241;BME280;20503;50.200;19.508;2023-04-29T19:04:11;101320.74;;;11.64;100.00
34241;BME280;20503;50.200;19.508;2023-04-29T19:09:19;101325.59;;;11.69;100.00
34241;BME280;20503;50.200;19.508;2023-04-29T19:14:28;101331.71;;;11.64;100.00
34241;BME280;20503;50.200;19.508;2023-04-29T19:19:35;101337.98;;;11.58;100.00
34241;BME280;20503;50.200;19.508;2023-04-29T19:24:43;101336.78;;;11.67;100.00
34241;BME280;20503;50.200;19.508;2023-04-29T19:29:51;101329.84;;;11.71;100.00
34241;BME280;20503;50.200;19.508;2023-04-29T19:34:59;101327.05;;;11.65;100.00
34241;BME280;20503;50.200;19.508;2023-04-29T19:40:08;101334.88;;;11.68;100.00
34241;BME280;20503;50.200;19.508;2023-04-29T19:45:13;101334.23;;;11.66;100.00
34241;BME280;20503;50.200;19.508;2023-04-29T19:50:21;101335.51;;;11.63;100.00
34241;BME280;20503;50.200;19.508;2023-04-29T19:55:29;101342.27;;;11.67;100.00
34241;BME280;20503;50.200;19.508;2023-04-29T20:00:37;101333.59;;;11.64;100.00
34241;BME280;20503;50.200;19.508;2023-04-29T20:05:44;101333.63;;;11.70;100.00
34241;BME280;20503;50.200;19.508;2023-04-29T20:10:52;101328.74;;;11.66;100.00
34241;BME280;20503;50.200;19.508;2023-04-29T20:15:59;101329.61;;;11.66;100.00
34241;BME280;20503;50.200;19.508;2023-04-29T20:21:07;101323.67;;;11.63;100.00
34241;BME280;20503;50.200;19.508;2023-04-29T20:26:15;101325.17;;;11.65;100.00
34241;BME280;20503;50.200;19.508;2023-04-29T20:31:22;101325.21;;;11.72;100.00
34241;BME280;20503;50.200;19.508;2023-04-29T20:36:30;101325.85;;;11.74;100.00
34241;BME280;20503;50.200;19.508;2023-04-29T20:41:38;101318.27;;;11.76;100.00
34241;BME280;20503;50.200;19.508;2023-04-29T20:46:46;101322.29;;;11.80;100.00
34241;BME280;20503;50.200;19.508;2023-04-29T20:51:54;101327.77;;;11.80;100.00
34241;BME280;20503;50.200;19.508;2023-04-29T20:57:01;101330.96;;;11.83;100.00
34241;BME280;20503;50.200;19.508;2023-04-29T21:02:09;101344.09;;;11.88;100.00
34241;BME280;20503;50.200;19.508;2023-04-29T21:07:16;101338.78;;;11.86;100.00
34241;BME280;20503;50.200;19.508;2023-04-29T21:12:25;101336.04;;;11.86;100.00
34241;BME280;20503;50.200;19.508;2023-04-29T21:17:32;101341.48;;;11.80;100.00
34241;BME280;20503;50.200;19.508;2023-04-29T21:22:40;101343.59;;;11.78;100.00
34241;BME280;20503;50.200;19.508;2023-04-29T21:27:48;101347.39;;;11.77;100.00
34241;BME280;20503;50.200;19.508;2023-04-29T21:32:56;101350.54;;;11.74;100.00
34241;BME280;20503;50.200;19.508;2023-04-29T21:38:03;101358.76;;;11.74;100.00
34241;BME280;20503;50.200;19.508;2023-04-29T21:43:13;101370.10;;;11.64;100.00
34241;BME280;20503;50.200;19.508;2023-04-29T21:48:19;101366.90;;;11.61;100.00
34241;BME280;20503;50.200;19.508;2023-04-29T21:53:26;101380.07;;;11.51;100.00
34241;BME280;20503;50.200;19.508;2023-04-29T21:58:34;101382.77;;;11.44;100.00
34241;BME280;20503;50.200;19.508;2023-04-29T22:03:41;101379.20;;;11.44;100.00
34241;BME280;20503;50.200;19.508;2023-04-29T22:08:49;101380.43;;;11.41;100.00
34241;BME280;20503;50.200;19.508;2023-04-29T22:13:58;101376.21;;;11.39;100.00
34241;BME280;20503;50.200;19.508;2023-04-29T22:19:05;101379.54;;;11.34;100.00
34241;BME280;20503;50.200;19.508;2023-04-29T22:24:12;101370.67;;;11.32;100.00
34241;BME280;20503;50.200;19.508;2023-04-29T22:29:20;101378.20;;;11.24;100.00
34241;BME280;20503;50.200;19.508;2023-04-29T22:34:28;101377.91;;;11.40;100.00
34241;BME280;20503;50.200;19.508;2023-04-29T22:39:36;101375.64;;;11.22;100.00
34241;BME280;20503;50.200;19.508;2023-04-29T22:44:43;101380.93;;;11.24;100.00
34241;BME280;20503;50.200;19.508;2023-04-29T22:49:51;101381.98;;;11.23;100.00
34241;BME280;20503;50.200;19.508;2023-04-29T22:54:59;101387.59;;;11.15;100.00
34241;BME280;20503;50.200;19.508;2023-04-29T23:00:07;101391.62;;;11.19;100.00
34241;BME280;20503;50.200;19.508;2023-04-29T23:05:13;101393.38;;;11.26;100.00
34241;BME280;20503;50.200;19.508;2023-04-29T23:10:21;101394.70;;;11.30;100.00
34241;BME280;20503;50.200;19.508;2023-04-29T23:15:29;101389.41;;;11.29;100.00
34241;BME280;20503;50.200;19.508;2023-04-29T23:20:38;101382.93;;;11.36;100.00
34241;BME280;20503;50.200;19.508;2023-04-29T23:25:46;101386.02;;;11.27;100.00
34241;BME280;20503;50.200;19.508;2023-04-29T23:30:53;101391.25;;;11.22;100.00
34241;BME280;20503;50.200;19.508;2023-04-29T23:36:00;101387.84;;;11.20;100.00
34241;BME280;20503;50.200;19.508;2023-04-29T23:41:07;101394.12;;;11.14;100.00
34241;BME280;20503;50.200;19.508;2023-04-29T23:46:15;101387.98;;;11.12;100.00
34241;BME280;20503;50.200;19.508;2023-04-29T23:51:23;101392.82;;;11.10;100.00
34241;BME280;20503;50.200;19.508;2023-04-29T23:56:32;101386.05;;;11.06;100.00
